sensor_id;sensor_type;location;lat;lon;timestamp;temperature;humidity
13354;DHT22;6746;50.892;4.064;2023-07-28T00:01:38;17.90;99.90
13354;DHT22;6746;50.892;4.064;2023-07-28T00:04:28;17.90;99.90
13354;DHT22;6746;50.892;4.064;2023-07-28T00:07:16;17.90;99.90
13354;DHT22;6746;50.892;4.064;2023-07-28T00:10:04;17.90;99.90
13354;DHT22;6746;50.892;4.064;2023-07-28T00:12:52;17.90;99.90
13354;DHT22;6746;50.892;4.064;2023-07-28T00:15:41;17.90;99.90
13354;DHT22;6746;50.892;4.064;2023-07-28T00:18:29;17.90;99.90
13354;DHT22;6746;50.892;4.064;2023-07-28T00:21:17;17.90;99.90
13354;DHT22;6746;50.892;4.064;2023-07-28T00:24:05;17.90;99.90
13354;DHT22;6746;50.892;4.064;2023-07-28T00:26:54;17.90;99.90
13354;DHT22;6746;50.892;4.064;2023-07-28T00:29:42;17.90;99.90
13354;DHT22;6746;50.892;4.064;2023-07-28T00:32:30;17.90;99.90
13354;DHT22;6746;50.892;4.064;2023-07-28T00:35:18;18.00;99.90
13354;DHT22;6746;50.892;4.064;2023-07-28T00:38:07;18.00;99.90
13354;DHT22;6746;50.892;4.064;2023-07-28T00:40:55;18.00;99.90
13354;DHT22;6746;50.892;4.064;2023-07-28T00:43:43;18.00;99.90
13354;DHT22;6746;50.892;4.064;2023-07-28T00:46:31;18.00;99.90
13354;DHT22;6746;50.892;4.064;2023-07-28T00:49:19;18.00;99.90
13354;DHT22;6746;50.892;4.064;2023-07-28T00:52:08;18.00;99.90
13354;DHT22;6746;50.892;4.064;2023-07-28T00:54:56;18.00;99.90
13354;DHT22;6746;50.892;4.064;2023-07-28T00:57:44;18.00;99.90
13354;DHT22;6746;50.892;4.064;2023-07-28T01:00:28;18.00;99.90
13354;DHT22;6746;50.892;4.064;2023-07-28T01:03:07;18.00;99.90
13354;DHT22;6746;50.892;4.064;2023-07-28T01:06:03;18.00;99.90
13354;DHT22;6746;50.892;4.064;2023-07-28T01:11:54;18.00;99.90
13354;DHT22;6746;50.892;4.064;2023-07-28T01:14:43;18.00;99.90
13354;DHT22;6746;50.892;4.064;2023-07-28T01:17:31;18.00;99.90
13354;DHT22;6746;50.892;4.064;2023-07-28T01:20:19;18.00;99.90
13354;DHT22;6746;50.892;4.064;2023-07-28T01:23:19;18.00;99.90
13354;DHT22;6746;50.892;4.064;2023-07-28T01:26:12;18.00;99.90
13354;DHT22;6746;50.892;4.064;2023-07-28T01:29:02;18.00;99.90
13354;DHT22;6746;50.892;4.064;2023-07-28T01:31:50;18.00;99.90
13354;DHT22;6746;50.892;4.064;2023-07-28T01:34:34;18.00;99.90
13354;DHT22;6746;50.892;4.064;2023-07-28T01:37:12;18.00;99.90
13354;DHT22;6746;50.892;4.064;2023-07-28T01:39:53;18.00;99.90
13354;DHT22;6746;50.892;4.064;2023-07-28T01:42:31;18.00;99.90
13354;DHT22;6746;50.892;4.064;2023-07-28T01:45:09;18.00;99.90
13354;DHT22;6746;50.892;4.064;2023-07-28T01:47:48;18.00;99.90
13354;DHT22;6746;50.892;4.064;2023-07-28T01:50:36;18.00;99.90
13354;DHT22;6746;50.892;4.064;2023-07-28T01:53:17;18.00;99.90
13354;DHT22;6746;50.892;4.064;2023-07-28T01:55:55;18.00;99.90
13354;DHT22;6746;50.892;4.064;2023-07-28T01:58:34;18.00;99.90
13354;DHT22;6746;50.892;4.064;2023-07-28T02:01:14;18.10;99.90
13354;DHT22;6746;50.892;4.064;2023-07-28T02:04:02;18.00;99.90
13354;DHT22;6746;50.892;4.064;2023-07-28T02:06:50;18.00;99.90
13354;DHT22;6746;50.892;4.064;2023-07-28T02:09:38;18.00;99.90
13354;DHT22;6746;50.892;4.064;2023-07-28T02:12:22;18.00;99.90
13354;DHT22;6746;50.892;4.064;2023-07-28T02:15:01;18.10;99.90
13354;DHT22;6746;50.892;4.064;2023-07-28T02:17:42;18.10;99.90
13354;DHT22;6746;50.892;4.064;2023-07-28T02:20:20;18.00;99.90
13354;DHT22;6746;50.892;4.064;2023-07-28T02:22:58;18.10;99.90
13354;DHT22;6746;50.892;4.064;2023-07-28T02:25:37;18.10;99.90
13354;DHT22;6746;50.892;4.064;2023-07-28T02:28:18;18.10;99.90
13354;DHT22;6746;50.892;4.064;2023-07-28T02:30:56;18.10;99.90
13354;DHT22;6746;50.892;4.064;2023-07-28T02:33:34;18.10;99.90
13354;DHT22;6746;50.892;4.064;2023-07-28T02:36:13;18.10;99.90
13354;DHT22;6746;50.892;4.064;2023-07-28T02:38:51;18.10;99.90
13354;DHT22;6746;50.892;4.064;2023-07-28T02:41:29;18.10;99.90
13354;DHT22;6746;50.892;4.064;2023-07-28T02:44:17;18.10;99.90
13354;DHT22;6746;50.892;4.064;2023-07-28T02:46:58;18.10;99.90
13354;DHT22;6746;50.892;4.064;2023-07-28T02:49:37;18.10;99.90
13354;DHT22;6746;50.892;4.064;2023-07-28T02:52:24;18.10;99.90
13354;DHT22;6746;50.892;4.064;2023-07-28T02:55:03;18.00;99.90
13354;DHT22;6746;50.892;4.064;2023-07-28T02:57:41;18.00;99.90
13354;DHT22;6746;50.892;4.064;2023-07-28T03:00:19;18.10;99.90
13354;DHT22;6746;50.892;4.064;2023-07-28T03:02:58;18.10;99.90
13354;DHT22;6746;50.892;4.064;2023-07-28T03:05:39;18.10;99.90
13354;DHT22;6746;50.892;4.064;2023-07-28T03:08:17;18.00;99.90
13354;DHT22;6746;50.892;4.064;2023-07-28T03:10:58;18.00;99.90
13354;DHT22;6746;50.892;4.064;2023-07-28T03:13:36;18.00;99.90
13354;DHT22;6746;50.892;4.064;2023-07-28T03:16:24;18.00;99.90
13354;DHT22;6746;50.892;4.064;2023-07-28T03:19:12;18.00;99.90
13354;DHT22;6746;50.892;4.064;2023-07-28T03:21:56;18.00;99.90
13354;DHT22;6746;50.892;4.064;2023-07-28T03:24:34;18.10;99.90
13354;DHT22;6746;50.892;4.064;2023-07-28T03:27:22;18.00;99.90
13354;DHT22;6746;50.892;4.064;2023-07-28T03:30:10;18.00;99.90
13354;DHT22;6746;50.892;4.064;2023-07-28T03:32:54;18.00;99.90
13354;DHT22;6746;50.892;4.064;2023-07-28T03:35:32;18.00;99.90
13354;DHT22;6746;50.892;4.064;2023-07-28T03:38:16;18.00;99.90
13354;DHT22;6746;50.892;4.064;2023-07-28T03:40:54;18.00;99.90
13354;DHT22;6746;50.892;4.064;2023-07-28T03:43:34;18.00;99.90
13354;DHT22;6746;50.892;4.064;2023-07-28T03:46:12;18.00;99.90
13354;DHT22;6746;50.892;4.064;2023-07-28T03:48:53;18.00;99.90
13354;DHT22;6746;50.892;4.064;2023-07-28T03:51:32;18.00;99.90
13354;DHT22;6746;50.892;4.064;2023-07-28T03:54:20;18.00;99.90
13354;DHT22;6746;50.892;4.064;2023-07-28T03:56:58;18.00;99.90
13354;DHT22;6746;50.892;4.064;2023-07-28T03:59:36;18.00;99.90
13354;DHT22;6746;50.892;4.064;2023-07-28T04:02:15;18.00;99.90
13354;DHT22;6746;50.892;4.064;2023-07-28T04:04:54;18.00;99.90
13354;DHT22;6746;50.892;4.064;2023-07-28T04:07:31;18.00;99.90
13354;DHT22;6746;50.892;4.064;2023-07-28T04:10:09;18.00;99.90
13354;DHT22;6746;50.892;4.064;2023-07-28T04:12:48;18.00;99.90
13354;DHT22;6746;50.892;4.064;2023-07-28T04:15:26;18.00;99.90
13354;DHT22;6746;50.892;4.064;2023-07-28T04:18:04;18.10;99.90
13354;DHT22;6746;50.892;4.064;2023-07-28T04:20:34;18.00;99.90
13354;DHT22;6746;50.892;4.064;2023-07-28T04:23:03;18.00;99.90
13354;DHT22;6746;50.892;4.064;2023-07-28T04:25:32;18.10;99.90
13354;DHT22;6746;50.892;4.064;2023-07-28T04:28:10;18.10;99.90
13354;DHT22;6746;50.892;4.064;2023-07-28T04:30:52;18.10;99.90
13354;DHT22;6746;50.892;4.064;2023-07-28T04:33:30;18.10;99.90
13354;DHT22;6746;50.892;4.064;2023-07-28T04:36:08;18.10;99.90
13354;DHT22;6746;50.892;4.064;2023-07-28T04:38:46;18.10;99.90
13354;DHT22;6746;50.892;4.064;2023-07-28T04:41:24;18.10;99.90
13354;DHT22;6746;50.892;4.064;2023-07-28T04:44:01;18.10;99.90
13354;DHT22;6746;50.892;4.064;2023-07-28T04:46:29;18.10;99.90
13354;DHT22;6746;50.892;4.064;2023-07-28T04:49:01;18.20;99.90
13354;DHT22;6746;50.892;4.064;2023-07-28T04:51:30;18.20;99.90
13354;DHT22;6746;50.892;4.064;2023-07-28T04:54:08;18.20;99.90
13354;DHT22;6746;50.892;4.064;2023-07-28T04:56:37;18.20;99.90
13354;DHT22;6746;50.892;4.064;2023-07-28T04:59:05;18.20;99.90
13354;DHT22;6746;50.892;4.064;2023-07-28T05:01:44;18.20;99.90
13354;DHT22;6746;50.892;4.064;2023-07-28T05:04:32;18.20;99.90
13354;DHT22;6746;50.892;4.064;2023-07-28T05:07:10;18.30;99.90
13354;DHT22;6746;50.892;4.064;2023-07-28T05:09:48;18.30;99.90
13354;DHT22;6746;50.892;4.064;2023-07-28T05:12:26;18.30;99.90
13354;DHT22;6746;50.892;4.064;2023-07-28T05:14:55;18.30;99.90
13354;DHT22;6746;50.892;4.064;2023-07-28T05:17:24;18.30;99.90
13354;DHT22;6746;50.892;4.064;2023-07-28T05:20:03;18.30;99.90
13354;DHT22;6746;50.892;4.064;2023-07-28T05:22:41;18.40;99.90
13354;DHT22;6746;50.892;4.064;2023-07-28T05:25:29;18.30;99.90
13354;DHT22;6746;50.892;4.064;2023-07-28T05:28:12;18.40;99.90
13354;DHT22;6746;50.892;4.064;2023-07-28T05:30:43;18.40;99.90
13354;DHT22;6746;50.892;4.064;2023-07-28T05:33:22;18.40;99.90
13354;DHT22;6746;50.892;4.064;2023-07-28T05:36:01;18.40;99.90
13354;DHT22;6746;50.892;4.064;2023-07-28T05:38:38;18.40;99.90
13354;DHT22;6746;50.892;4.064;2023-07-28T05:41:16;18.50;99.90
13354;DHT22;6746;50.892;4.064;2023-07-28T05:43:55;18.50;99.90
13354;DHT22;6746;50.892;4.064;2023-07-28T05:46:26;18.50;99.90
13354;DHT22;6746;50.892;4.064;2023-07-28T05:48:57;18.70;99.90
13354;DHT22;6746;50.892;4.064;2023-07-28T05:51:46;18.70;99.90
13354;DHT22;6746;50.892;4.064;2023-07-28T05:54:24;18.80;99.90
13354;DHT22;6746;50.892;4.064;2023-07-28T05:57:03;18.90;99.90
13354;DHT22;6746;50.892;4.064;2023-07-28T05:59:41;18.90;99.90
13354;DHT22;6746;50.892;4.064;2023-07-28T06:02:19;19.10;99.90
13354;DHT22;6746;50.892;4.064;2023-07-28T06:04:57;19.20;99.90
13354;DHT22;6746;50.892;4.064;2023-07-28T06:07:35;19.30;99.90
13354;DHT22;6746;50.892;4.064;2023-07-28T06:10:14;19.40;99.90
13354;DHT22;6746;50.892;4.064;2023-07-28T06:12:52;19.30;99.90
13354;DHT22;6746;50.892;4.064;2023-07-28T06:15:42;19.30;99.90
13354;DHT22;6746;50.892;4.064;2023-07-28T06:18:09;19.40;99.90
13354;DHT22;6746;50.892;4.064;2023-07-28T06:20:38;19.40;99.90
13354;DHT22;6746;50.892;4.064;2023-07-28T06:23:16;19.50;99.90
13354;DHT22;6746;50.892;4.064;2023-07-28T06:25:54;19.50;99.90
13354;DHT22;6746;50.892;4.064;2023-07-28T06:28:32;19.50;99.90
13354;DHT22;6746;50.892;4.064;2023-07-28T06:31:11;19.60;99.90
13354;DHT22;6746;50.892;4.064;2023-07-28T06:33:49;19.70;99.90
13354;DHT22;6746;50.892;4.064;2023-07-28T06:36:20;19.80;99.90
13354;DHT22;6746;50.892;4.064;2023-07-28T06:38:49;19.70;99.90
13354;DHT22;6746;50.892;4.064;2023-07-28T06:41:18;19.80;99.90
13354;DHT22;6746;50.892;4.064;2023-07-28T06:43:50;20.00;99.90
13354;DHT22;6746;50.892;4.064;2023-07-28T06:46:27;20.00;99.90
13354;DHT22;6746;50.892;4.064;2023-07-28T06:48:55;19.90;99.90
13354;DHT22;6746;50.892;4.064;2023-07-28T06:51:34;19.80;99.90
13354;DHT22;6746;50.892;4.064;2023-07-28T06:54:05;19.70;99.90
13354;DHT22;6746;50.892;4.064;2023-07-28T06:56:36;19.60;99.90
13354;DHT22;6746;50.892;4.064;2023-07-28T06:59:14;19.70;99.90
13354;DHT22;6746;50.892;4.064;2023-07-28T07:01:52;19.80;99.90
13354;DHT22;6746;50.892;4.064;2023-07-28T07:04:31;19.80;99.90
13354;DHT22;6746;50.892;4.064;2023-07-28T07:07:09;20.00;99.90
13354;DHT22;6746;50.892;4.064;2023-07-28T07:09:47;20.10;99.90
13354;DHT22;6746;50.892;4.064;2023-07-28T07:12:25;20.40;99.90
13354;DHT22;6746;50.892;4.064;2023-07-28T07:15:04;20.70;99.90
13354;DHT22;6746;50.892;4.064;2023-07-28T07:17:52;21.00;99.90
13354;DHT22;6746;50.892;4.064;2023-07-28T07:20:20;21.20;99.90
13354;DHT22;6746;50.892;4.064;2023-07-28T07:22:49;21.30;99.90
13354;DHT22;6746;50.892;4.064;2023-07-28T07:25:28;21.50;99.90
13354;DHT22;6746;50.892;4.064;2023-07-28T07:28:04;21.50;99.90
13354;DHT22;6746;50.892;4.064;2023-07-28T07:30:33;21.30;99.90
13354;DHT22;6746;50.892;4.064;2023-07-28T07:33:10;21.20;99.90
13354;DHT22;6746;50.892;4.064;2023-07-28T07:35:39;20.90;99.90
13354;DHT22;6746;50.892;4.064;2023-07-28T07:38:17;20.70;99.90
13354;DHT22;6746;50.892;4.064;2023-07-28T07:40:48;20.70;99.90
13354;DHT22;6746;50.892;4.064;2023-07-28T07:43:17;20.80;99.90
13354;DHT22;6746;50.892;4.064;2023-07-28T07:45:55;20.90;99.90
13354;DHT22;6746;50.892;4.064;2023-07-28T07:48:27;21.10;99.90
13354;DHT22;6746;50.892;4.064;2023-07-28T07:50:55;21.00;99.90
13354;DHT22;6746;50.892;4.064;2023-07-28T07:53:34;21.10;99.90
13354;DHT22;6746;50.892;4.064;2023-07-28T07:56:06;21.00;99.90
13354;DHT22;6746;50.892;4.064;2023-07-28T07:58:35;20.90;99.90
13354;DHT22;6746;50.892;4.064;2023-07-28T08:01:04;20.90;99.90
13354;DHT22;6746;50.892;4.064;2023-07-28T08:03:33;20.70;99.90
13354;DHT22;6746;50.892;4.064;2023-07-28T08:06:05;20.70;99.90
13354;DHT22;6746;50.892;4.064;2023-07-28T08:08:34;20.80;99.90
13354;DHT22;6746;50.892;4.064;2023-07-28T08:11:03;20.80;99.90
13354;DHT22;6746;50.892;4.064;2023-07-28T08:13:32;20.90;99.90
13354;DHT22;6746;50.892;4.064;2023-07-28T08:16:04;21.00;99.90
13354;DHT22;6746;50.892;4.064;2023-07-28T08:18:33;20.90;99.90
13354;DHT22;6746;50.892;4.064;2023-07-28T08:21:02;21.00;99.90
13354;DHT22;6746;50.892;4.064;2023-07-28T08:23:31;20.90;99.90
13354;DHT22;6746;50.892;4.064;2023-07-28T08:26:09;20.80;99.90
13354;DHT22;6746;50.892;4.064;2023-07-28T08:28:41;20.70;99.90
13354;DHT22;6746;50.892;4.064;2023-07-28T08:31:10;20.60;99.90
13354;DHT22;6746;50.892;4.064;2023-07-28T08:33:48;20.50;99.90
13354;DHT22;6746;50.892;4.064;2023-07-28T08:36:22;20.60;99.90
13354;DHT22;6746;50.892;4.064;2023-07-28T08:38:51;20.60;99.90
13354;DHT22;6746;50.892;4.064;2023-07-28T08:41:22;20.80;99.90
13354;DHT22;6746;50.892;4.064;2023-07-28T08:43:52;21.10;99.90
13354;DHT22;6746;50.892;4.064;2023-07-28T08:46:23;21.40;99.90
13354;DHT22;6746;50.892;4.064;2023-07-28T08:48:52;21.70;99.90
13354;DHT22;6746;50.892;4.064;2023-07-28T08:51:31;22.20;99.90
13354;DHT22;6746;50.892;4.064;2023-07-28T08:54:09;22.40;99.90
13354;DHT22;6746;50.892;4.064;2023-07-28T08:56:37;22.60;99.90
13354;DHT22;6746;50.892;4.064;2023-07-28T08:59:06;23.10;99.90
13354;DHT22;6746;50.892;4.064;2023-07-28T09:01:45;23.40;99.90
13354;DHT22;6746;50.892;4.064;2023-07-28T09:04:23;23.60;99.90
13354;DHT22;6746;50.892;4.064;2023-07-28T09:07:02;23.70;99.90
13354;DHT22;6746;50.892;4.064;2023-07-28T09:09:49;23.70;99.90
13354;DHT22;6746;50.892;4.064;2023-07-28T09:12:30;23.70;99.90
13354;DHT22;6746;50.892;4.064;2023-07-28T09:15:06;23.70;99.90
13354;DHT22;6746;50.892;4.064;2023-07-28T09:17:44;23.30;99.90
13354;DHT22;6746;50.892;4.064;2023-07-28T09:20:15;23.00;99.90
13354;DHT22;6746;50.892;4.064;2023-07-28T09:22:54;22.70;99.90
13354;DHT22;6746;50.892;4.064;2023-07-28T09:25:32;22.30;99.90
13354;DHT22;6746;50.892;4.064;2023-07-28T09:28:10;22.10;99.90
13354;DHT22;6746;50.892;4.064;2023-07-28T09:30:55;21.90;99.90
13354;DHT22;6746;50.892;4.064;2023-07-28T09:33:31;21.80;99.90
13354;DHT22;6746;50.892;4.064;2023-07-28T09:36:12;21.60;99.90
13354;DHT22;6746;50.892;4.064;2023-07-28T09:38:40;21.60;99.90
13354;DHT22;6746;50.892;4.064;2023-07-28T09:41:09;21.50;99.90
13354;DHT22;6746;50.892;4.064;2023-07-28T09:43:40;21.70;99.90
13354;DHT22;6746;50.892;4.064;2023-07-28T09:46:09;21.80;99.90
13354;DHT22;6746;50.892;4.064;2023-07-28T09:48:44;21.90;99.90
13354;DHT22;6746;50.892;4.064;2023-07-28T09:51:14;21.90;99.90
13354;DHT22;6746;50.892;4.064;2023-07-28T09:53:44;21.70;99.90
13354;DHT22;6746;50.892;4.064;2023-07-28T09:56:10;21.50;99.90
13354;DHT22;6746;50.892;4.064;2023-07-28T09:58:50;21.40;99.90
13354;DHT22;6746;50.892;4.064;2023-07-28T10:01:21;21.50;99.90
13354;DHT22;6746;50.892;4.064;2023-07-28T10:03:59;21.70;99.90
13354;DHT22;6746;50.892;4.064;2023-07-28T10:06:38;21.90;99.90
13354;DHT22;6746;50.892;4.064;2023-07-28T10:09:06;22.20;99.90
13354;DHT22;6746;50.892;4.064;2023-07-28T10:11:35;22.40;99.90
13354;DHT22;6746;50.892;4.064;2023-07-28T10:14:04;22.60;99.90
13354;DHT22;6746;50.892;4.064;2023-07-28T10:16:39;22.70;99.90
13354;DHT22;6746;50.892;4.064;2023-07-28T10:19:19;22.60;99.90
13354;DHT22;6746;50.892;4.064;2023-07-28T10:21:48;22.60;99.90
13354;DHT22;6746;50.892;4.064;2023-07-28T10:24:17;22.70;99.90
13354;DHT22;6746;50.892;4.064;2023-07-28T10:26:46;22.90;99.90
13354;DHT22;6746;50.892;4.064;2023-07-28T10:29:15;23.70;99.90
13354;DHT22;6746;50.892;4.064;2023-07-28T10:31:50;23.30;99.90
13354;DHT22;6746;50.892;4.064;2023-07-28T10:34:18;23.50;99.90
13354;DHT22;6746;50.892;4.064;2023-07-28T10:37:06;23.80;99.90
13354;DHT22;6746;50.892;4.064;2023-07-28T10:39:45;24.10;99.90
13354;DHT22;6746;50.892;4.064;2023-07-28T10:42:23;24.10;99.90
13354;DHT22;6746;50.892;4.064;2023-07-28T10:44:57;24.20;99.90
13354;DHT22;6746;50.892;4.064;2023-07-28T10:47:25;23.80;99.90
13354;DHT22;6746;50.892;4.064;2023-07-28T10:50:03;23.80;99.90
13354;DHT22;6746;50.892;4.064;2023-07-28T10:52:31;23.90;99.90
13354;DHT22;6746;50.892;4.064;2023-07-28T10:55:03;24.10;99.90
13354;DHT22;6746;50.892;4.064;2023-07-28T10:57:31;24.30;99.90
13354;DHT22;6746;50.892;4.064;2023-07-28T11:00:10;24.40;99.90
13354;DHT22;6746;50.892;4.064;2023-07-28T11:02:42;24.50;99.90
13354;DHT22;6746;50.892;4.064;2023-07-28T11:05:11;24.90;99.90
13354;DHT22;6746;50.892;4.064;2023-07-28T11:07:44;25.30;99.90
13354;DHT22;6746;50.892;4.064;2023-07-28T11:10:13;25.30;99.90
13354;DHT22;6746;50.892;4.064;2023-07-28T11:12:48;25.50;99.90
13354;DHT22;6746;50.892;4.064;2023-07-28T11:15:17;25.70;99.90
13354;DHT22;6746;50.892;4.064;2023-07-28T11:17:51;25.70;99.90
13354;DHT22;6746;50.892;4.064;2023-07-28T11:20:26;25.60;99.90
13354;DHT22;6746;50.892;4.064;2023-07-28T11:22:58;25.70;99.90
13354;DHT22;6746;50.892;4.064;2023-07-28T11:25:26;25.70;99.90
13354;DHT22;6746;50.892;4.064;2023-07-28T11:27:57;25.80;99.90
13354;DHT22;6746;50.892;4.064;2023-07-28T11:30:26;25.90;99.90
13354;DHT22;6746;50.892;4.064;2023-07-28T11:32:58;26.10;99.90
13354;DHT22;6746;50.892;4.064;2023-07-28T11:35:27;26.20;99.90
13354;DHT22;6746;50.892;4.064;2023-07-28T11:37:55;26.10;99.90
13354;DHT22;6746;50.892;4.064;2023-07-28T11:40:24;26.00;99.90
13354;DHT22;6746;50.892;4.064;2023-07-28T11:42:56;26.10;99.90
13354;DHT22;6746;50.892;4.064;2023-07-28T11:45:25;25.90;99.90
13354;DHT22;6746;50.892;4.064;2023-07-28T11:48:01;26.00;99.90
13354;DHT22;6746;50.892;4.064;2023-07-28T11:50:29;25.80;99.90
13354;DHT22;6746;50.892;4.064;2023-07-28T11:53:08;25.90;99.90
13354;DHT22;6746;50.892;4.064;2023-07-28T11:55:38;26.00;99.90
13354;DHT22;6746;50.892;4.064;2023-07-28T11:58:07;26.20;99.90
13354;DHT22;6746;50.892;4.064;2023-07-28T12:00:36;26.00;99.90
13354;DHT22;6746;50.892;4.064;2023-07-28T12:03:08;26.20;99.90
13354;DHT22;6746;50.892;4.064;2023-07-28T12:05:42;26.40;99.90
13354;DHT22;6746;50.892;4.064;2023-07-28T12:08:10;26.40;99.90
13354;DHT22;6746;50.892;4.064;2023-07-28T12:10:53;26.40;99.90
13354;DHT22;6746;50.892;4.064;2023-07-28T12:13:08;26.70;99.90
13354;DHT22;6746;50.892;4.064;2023-07-28T12:15:47;26.60;99.90
13354;DHT22;6746;50.892;4.064;2023-07-28T12:18:20;26.60;99.90
13354;DHT22;6746;50.892;4.064;2023-07-28T12:20:50;26.40;99.90
13354;DHT22;6746;50.892;4.064;2023-07-28T12:23:23;26.20;99.90
13354;DHT22;6746;50.892;4.064;2023-07-28T12:25:52;26.00;99.90
13354;DHT22;6746;50.892;4.064;2023-07-28T12:28:21;25.60;99.90
13354;DHT22;6746;50.892;4.064;2023-07-28T12:30:50;25.20;99.90
13354;DHT22;6746;50.892;4.064;2023-07-28T12:33:19;25.10;99.90
13354;DHT22;6746;50.892;4.064;2023-07-28T12:35:47;25.20;99.90
13354;DHT22;6746;50.892;4.064;2023-07-28T12:38:24;25.20;99.90
13354;DHT22;6746;50.892;4.064;2023-07-28T12:40:53;25.30;99.90
13354;DHT22;6746;50.892;4.064;2023-07-28T12:43:41;25.20;99.90
13354;DHT22;6746;50.892;4.064;2023-07-28T12:46:19;25.40;99.90
13354;DHT22;6746;50.892;4.064;2023-07-28T12:48:58;25.70;99.90
13354;DHT22;6746;50.892;4.064;2023-07-28T12:51:36;25.70;99.90
13354;DHT22;6746;50.892;4.064;2023-07-28T12:54:14;26.00;99.90
13354;DHT22;6746;50.892;4.064;2023-07-28T12:57:02;26.10;99.90
13354;DHT22;6746;50.892;4.064;2023-07-28T12:59:40;26.00;99.90
13354;DHT22;6746;50.892;4.064;2023-07-28T13:02:18;26.00;99.90
13354;DHT22;6746;50.892;4.064;2023-07-28T13:05:06;26.10;99.90
13354;DHT22;6746;50.892;4.064;2023-07-28T13:07:34;26.00;99.90
13354;DHT22;6746;50.892;4.064;2023-07-28T13:10:05;26.10;99.90
13354;DHT22;6746;50.892;4.064;2023-07-28T13:12:35;26.20;99.90
13354;DHT22;6746;50.892;4.064;2023-07-28T13:15:05;26.50;99.90
13354;DHT22;6746;50.892;4.064;2023-07-28T13:17:36;26.60;99.90
13354;DHT22;6746;50.892;4.064;2023-07-28T13:20:06;26.80;99.90
13354;DHT22;6746;50.892;4.064;2023-07-28T13:22:40;26.60;99.90
13354;DHT22;6746;50.892;4.064;2023-07-28T13:25:09;26.20;99.90
13354;DHT22;6746;50.892;4.064;2023-07-28T13:27:48;26.20;99.90
13354;DHT22;6746;50.892;4.064;2023-07-28T13:30:16;26.00;99.90
13354;DHT22;6746;50.892;4.064;2023-07-28T13:32:45;26.20;99.90
13354;DHT22;6746;50.892;4.064;2023-07-28T13:35:14;26.30;99.90
13354;DHT22;6746;50.892;4.064;2023-07-28T13:37:43;26.50;99.90
13354;DHT22;6746;50.892;4.064;2023-07-28T13:40:12;26.60;99.90
13354;DHT22;6746;50.892;4.064;2023-07-28T13:42:41;26.70;99.90
13354;DHT22;6746;50.892;4.064;2023-07-28T13:45:18;27.00;99.90
13354;DHT22;6746;50.892;4.064;2023-07-28T13:47:56;27.00;99.90
13354;DHT22;6746;50.892;4.064;2023-07-28T13:50:40;26.90;99.90
13354;DHT22;6746;50.892;4.064;2023-07-28T13:53:18;26.50;99.90
13354;DHT22;6746;50.892;4.064;2023-07-28T13:55:47;26.20;99.90
13354;DHT22;6746;50.892;4.064;2023-07-28T13:58:15;26.10;99.90
13354;DHT22;6746;50.892;4.064;2023-07-28T14:00:44;26.20;99.90
13354;DHT22;6746;50.892;4.064;2023-07-28T14:03:13;26.70;99.90
13354;DHT22;6746;50.892;4.064;2023-07-28T14:05:52;26.90;99.90
13354;DHT22;6746;50.892;4.064;2023-07-28T14:08:30;26.90;99.90
13354;DHT22;6746;50.892;4.064;2023-07-28T14:11:00;26.70;99.90
13354;DHT22;6746;50.892;4.064;2023-07-28T14:13:28;26.80;99.90
13354;DHT22;6746;50.892;4.064;2023-07-28T14:16:02;26.70;99.90
13354;DHT22;6746;50.892;4.064;2023-07-28T14:18:31;26.80;99.90
13354;DHT22;6746;50.892;4.064;2023-07-28T14:21:03;26.60;99.90
13354;DHT22;6746;50.892;4.064;2023-07-28T14:23:32;26.40;99.90
13354;DHT22;6746;50.892;4.064;2023-07-28T14:26:04;26.20;99.90
13354;DHT22;6746;50.892;4.064;2023-07-28T14:28:33;26.10;99.90
13354;DHT22;6746;50.892;4.064;2023-07-28T14:31:21;26.10;99.90
13354;DHT22;6746;50.892;4.064;2023-07-28T14:34:00;26.30;99.90
13354;DHT22;6746;50.892;4.064;2023-07-28T14:36:38;26.60;99.90
13354;DHT22;6746;50.892;4.064;2023-07-28T14:39:16;26.50;99.90
13354;DHT22;6746;50.892;4.064;2023-07-28T14:41:47;26.40;99.90
13354;DHT22;6746;50.892;4.064;2023-07-28T14:44:16;26.50;99.90
13354;DHT22;6746;50.892;4.064;2023-07-28T14:46:55;26.70;99.90
13354;DHT22;6746;50.892;4.064;2023-07-28T14:49:29;26.90;99.90
13354;DHT22;6746;50.892;4.064;2023-07-28T14:52:04;26.70;99.90
13354;DHT22;6746;50.892;4.064;2023-07-28T14:54:42;26.80;99.90
13354;DHT22;6746;50.892;4.064;2023-07-28T14:57:20;26.90;99.90
13354;DHT22;6746;50.892;4.064;2023-07-28T14:59:58;26.50;99.90
13354;DHT22;6746;50.892;4.064;2023-07-28T15:02:36;25.90;99.90
13354;DHT22;6746;50.892;4.064;2023-07-28T15:05:08;25.80;99.90
13354;DHT22;6746;50.892;4.064;2023-07-28T15:07:37;25.70;99.90
13354;DHT22;6746;50.892;4.064;2023-07-28T15:10:16;25.70;99.90
13354;DHT22;6746;50.892;4.064;2023-07-28T15:12:54;25.90;99.90
13354;DHT22;6746;50.892;4.064;2023-07-28T15:15:32;26.00;99.90
13354;DHT22;6746;50.892;4.064;2023-07-28T15:18:11;26.10;99.90
13354;DHT22;6746;50.892;4.064;2023-07-28T15:20:49;26.00;99.90
13354;DHT22;6746;50.892;4.064;2023-07-28T15:23:37;26.00;99.90
13354;DHT22;6746;50.892;4.064;2023-07-28T15:26:15;26.00;99.90
13354;DHT22;6746;50.892;4.064;2023-07-28T15:28:54;26.20;99.90
13354;DHT22;6746;50.892;4.064;2023-07-28T15:31:32;26.40;99.90
13354;DHT22;6746;50.892;4.064;2023-07-28T15:34:10;26.50;99.90
13354;DHT22;6746;50.892;4.064;2023-07-28T15:36:48;26.30;99.90
13354;DHT22;6746;50.892;4.064;2023-07-28T15:39:26;26.40;99.90
13354;DHT22;6746;50.892;4.064;2023-07-28T15:42:05;26.50;99.90
13354;DHT22;6746;50.892;4.064;2023-07-28T15:44:53;26.50;99.90
13354;DHT22;6746;50.892;4.064;2023-07-28T15:47:22;26.60;99.90
13354;DHT22;6746;50.892;4.064;2023-07-28T15:49:51;26.70;99.90
13354;DHT22;6746;50.892;4.064;2023-07-28T15:52:30;26.60;99.90
13354;DHT22;6746;50.892;4.064;2023-07-28T15:55:07;26.50;99.90
13354;DHT22;6746;50.892;4.064;2023-07-28T15:57:55;26.60;99.90
13354;DHT22;6746;50.892;4.064;2023-07-28T16:00:34;26.60;99.90
13354;DHT22;6746;50.892;4.064;2023-07-28T16:03:02;26.70;99.90
13354;DHT22;6746;50.892;4.064;2023-07-28T16:05:41;26.80;99.90
13354;DHT22;6746;50.892;4.064;2023-07-28T16:08:19;26.80;99.90
13354;DHT22;6746;50.892;4.064;2023-07-28T16:10:57;26.60;99.90
13354;DHT22;6746;50.892;4.064;2023-07-28T16:13:35;26.70;99.90
13354;DHT22;6746;50.892;4.064;2023-07-28T16:16:13;26.60;99.90
13354;DHT22;6746;50.892;4.064;2023-07-28T16:19:01;26.60;99.90
13354;DHT22;6746;50.892;4.064;2023-07-28T16:21:39;26.60;99.90
13354;DHT22;6746;50.892;4.064;2023-07-28T16:24:17;26.60;99.90
13354;DHT22;6746;50.892;4.064;2023-07-28T16:26:56;26.70;99.90
13354;DHT22;6746;50.892;4.064;2023-07-28T16:29:34;26.80;99.90
13354;DHT22;6746;50.892;4.064;2023-07-28T16:32:12;26.90;99.90
13354;DHT22;6746;50.892;4.064;2023-07-28T16:34:50;26.80;99.90
13354;DHT22;6746;50.892;4.064;2023-07-28T16:37:28;26.60;99.90
13354;DHT22;6746;50.892;4.064;2023-07-28T16:40:07;26.40;99.90
13354;DHT22;6746;50.892;4.064;2023-07-28T16:42:54;26.30;99.90
13354;DHT22;6746;50.892;4.064;2023-07-28T16:45:33;26.30;99.90
13354;DHT22;6746;50.892;4.064;2023-07-28T16:48:11;26.40;99.90